createdAt,value
2018-05-12T00:01:51.212Z,13.85
2018-05-12T00:04:02.372Z,13.85
2018-05-12T00:06:13.578Z,13.87
2018-05-12T00:08:24.698Z,13.89
2018-05-12T00:10:35.946Z,13.91
2018-05-12T00:12:47.103Z,13.89
2018-05-12T00:14:58.384Z,13.83
2018-05-12T00:17:09.510Z,13.69
2018-05-12T00:19:20.743Z,13.49
2018-05-12T00:21:31.985Z,13.41
2018-05-12T00:23:43.182Z,13.34
2018-05-12T00:25:54.488Z,13.26
2018-05-12T00:28:05.764Z,13.27
2018-05-12T00:30:16.924Z,13.26
2018-05-12T00:32:28.231Z,13.27
2018-05-12T00:34:39.412Z,13.23
2018-05-12T00:36:50.792Z,13.14
2018-05-12T00:39:02.052Z,13.11
2018-05-12T00:41:13.346Z,13.08
2018-05-12T00:43:24.548Z,13.06
2018-05-12T00:45:35.761Z,13.01
2018-05-12T00:47:46.973Z,13.01
2018-05-12T00:49:58.090Z,13.01
2018-05-12T00:52:09.235Z,13.02
2018-05-12T00:54:20.413Z,13.02
2018-05-12T00:56:31.602Z,13.02
2018-05-12T00:58:42.827Z,13.00
2018-05-12T01:00:54.059Z,12.98
2018-05-12T01:03:05.280Z,12.97
2018-05-12T01:05:16.627Z,12.94
2018-05-12T01:07:27.983Z,12.97
2018-05-12T01:09:39.186Z,13.02
2018-05-12T01:11:50.373Z,12.99
2018-05-12T01:14:01.672Z,12.93
2018-05-12T01:16:12.902Z,12.88
2018-05-12T01:18:24.115Z,12.88
2018-05-12T01:20:35.276Z,12.85
2018-05-12T01:22:46.538Z,12.83
2018-05-12T01:24:57.753Z,12.79
2018-05-12T01:27:08.908Z,12.73
2018-05-12T01:29:20.160Z,12.70
2018-05-12T01:31:31.323Z,12.67
2018-05-12T01:33:42.466Z,12.65
2018-05-12T01:35:53.724Z,12.62
2018-05-12T01:38:04.928Z,12.60
2018-05-12T01:40:16.123Z,12.56
2018-05-12T01:42:27.295Z,12.57
2018-05-12T01:44:38.528Z,12.52
2018-05-12T01:46:50.128Z,12.56
2018-05-12T01:49:01.303Z,12.57
2018-05-12T01:51:12.634Z,12.56
2018-05-12T01:53:23.897Z,12.51
2018-05-12T01:55:35.235Z,12.47
2018-05-12T01:57:46.595Z,12.42
2018-05-12T01:59:58.211Z,12.40
2018-05-12T02:02:09.383Z,12.40
2018-05-12T02:04:20.636Z,12.31
2018-05-12T02:06:31.964Z,12.22
2018-05-12T02:08:43.211Z,12.12
2018-05-12T02:10:54.430Z,12.11
2018-05-12T02:13:05.655Z,12.12
2018-05-12T02:15:16.839Z,12.15
2018-05-12T02:17:27.994Z,12.17
2018-05-12T02:19:39.118Z,12.20
2018-05-12T02:21:50.382Z,12.18
2018-05-12T02:24:01.633Z,12.16
2018-05-12T02:26:12.747Z,12.19
2018-05-12T02:28:24.160Z,12.15
2018-05-12T02:30:35.329Z,12.09
2018-05-12T02:32:46.619Z,11.98
2018-05-12T02:34:57.780Z,11.98
2018-05-12T02:37:08.928Z,11.96
2018-05-12T02:39:20.212Z,11.95
2018-05-12T02:41:31.371Z,11.87
2018-05-12T02:43:42.652Z,11.89
2018-05-12T02:45:53.838Z,11.89
2018-05-12T02:48:05.095Z,11.88
2018-05-12T02:50:16.244Z,11.89
2018-05-12T02:52:27.435Z,11.85
2018-05-12T02:54:38.794Z,11.82
2018-05-12T02:56:50.046Z,11.87
2018-05-12T02:59:01.216Z,11.91
2018-05-12T03:01:12.495Z,11.91
2018-05-12T03:03:23.708Z,11.90
2018-05-12T03:05:34.926Z,11.89
2018-05-12T03:07:46.039Z,11.92
2018-05-12T03:09:57.266Z,11.92
2018-05-12T03:12:08.552Z,11.89
2018-05-12T03:14:19.717Z,11.88
2018-05-12T03:16:31.069Z,11.83
2018-05-12T03:18:42.250Z,11.83
2018-05-12T03:20:53.542Z,11.75
2018-05-12T03:23:04.754Z,11.72
2018-05-12T03:25:15.865Z,11.68
2018-05-12T03:27:27.221Z,11.70
2018-05-12T03:29:38.365Z,11.73
2018-05-12T03:31:49.519Z,11.76
2018-05-12T03:34:00.663Z,11.77
2018-05-12T03:36:11.817Z,11.78
2018-05-12T03:38:22.983Z,11.75
2018-05-12T03:40:34.099Z,11.68
2018-05-12T03:42:45.306Z,11.65
2018-05-12T03:44:56.515Z,11.66
2018-05-12T03:47:07.702Z,11.66
2018-05-12T03:49:18.914Z,11.71
2018-05-12T03:51:30.074Z,11.73
2018-05-12T03:53:41.259Z,11.75
2018-05-12T03:55:52.371Z,11.76
2018-05-12T03:58:03.526Z,11.73
2018-05-12T04:00:14.690Z,11.78
2018-05-12T04:02:25.827Z,11.88
2018-05-12T04:04:49.419Z,11.93
2018-05-12T04:07:13.831Z,11.92
2018-05-12T04:09:37.165Z,11.94
2018-05-12T04:12:00.253Z,11.96
2018-05-12T04:14:11.555Z,11.95
2018-05-12T04:16:22.793Z,11.89
2018-05-12T04:18:33.964Z,11.91
2018-05-12T04:20:45.123Z,11.95
2018-05-12T04:22:56.339Z,11.99
2018-05-12T04:25:07.548Z,12.04
2018-05-12T04:27:18.690Z,12.02
2018-05-12T04:29:29.866Z,12.04
2018-05-12T04:31:40.975Z,12.07
2018-05-12T04:33:52.115Z,12.13
2018-05-12T04:36:03.212Z,12.18
2018-05-12T04:38:14.346Z,12.24
2018-05-12T04:40:25.583Z,12.29
2018-05-12T04:42:36.861Z,12.36
2018-05-12T04:44:47.970Z,12.45
2018-05-12T04:46:59.158Z,12.58
2018-05-12T04:49:10.295Z,12.76
2018-05-12T04:51:21.438Z,12.94
2018-05-12T04:53:32.559Z,13.10
2018-05-12T04:55:43.707Z,13.25
2018-05-12T04:57:54.882Z,13.40
2018-05-12T05:00:06.014Z,13.47
2018-05-12T05:02:17.220Z,13.48
2018-05-12T05:04:28.399Z,13.49
2018-05-12T05:06:39.605Z,13.57
2018-05-12T05:08:50.807Z,13.57
2018-05-12T05:11:01.967Z,13.62
2018-05-12T05:13:13.261Z,13.72
2018-05-12T05:15:24.448Z,13.84
2018-05-12T05:17:35.582Z,13.97
2018-05-12T05:19:46.818Z,14.13
2018-05-12T05:21:57.934Z,14.29
2018-05-12T05:24:09.089Z,14.43
2018-05-12T05:26:20.233Z,14.57
2018-05-12T05:28:31.408Z,14.71
2018-05-12T05:30:42.526Z,14.85
2018-05-12T05:32:53.691Z,15.02
2018-05-12T05:35:04.826Z,15.20
2018-05-12T05:37:16.022Z,15.32
2018-05-12T05:39:27.366Z,15.45
2018-05-12T05:41:38.674Z,15.56
2018-05-12T05:43:49.786Z,15.59
2018-05-12T05:46:00.895Z,15.68
2018-05-12T05:48:12.039Z,15.74
2018-05-12T05:50:23.194Z,15.82
2018-05-12T05:52:34.307Z,16.00
2018-05-12T05:54:57.395Z,16.28
2018-05-12T05:59:38.899Z,16.73
2018-05-12T06:01:50.071Z,16.91
2018-05-12T06:04:01.308Z,17.06
2018-05-12T06:06:12.621Z,17.23
2018-05-12T06:08:23.835Z,17.40
2018-05-12T06:10:35.105Z,17.57
2018-05-12T06:12:46.298Z,17.76
2018-05-12T06:14:57.499Z,18.02
2018-05-12T06:17:08.647Z,18.29
2018-05-12T06:19:19.834Z,18.61
2018-05-12T06:21:31.037Z,18.92
2018-05-12T06:23:42.190Z,19.22
2018-05-12T06:25:53.363Z,19.45
2018-05-12T06:28:04.601Z,19.66
2018-05-12T06:30:16.553Z,19.88
2018-05-12T06:32:27.711Z,20.24
2018-05-12T06:34:38.816Z,20.57
2018-05-12T06:36:49.932Z,20.84
2018-05-12T06:39:01.079Z,21.01
2018-05-12T06:41:12.220Z,21.03
2018-05-12T06:43:23.470Z,21.23
2018-05-12T06:45:34.624Z,21.43
2018-05-12T06:47:45.936Z,21.58
2018-05-12T06:49:57.156Z,21.70
2018-05-12T06:52:08.262Z,21.84
2018-05-12T06:54:19.470Z,21.97
2018-05-12T06:56:30.673Z,22.00
2018-05-12T06:58:41.840Z,22.12
2018-05-12T07:00:52.983Z,22.30
2018-05-12T07:03:04.147Z,22.55
2018-05-12T07:05:15.442Z,22.82
2018-05-12T07:07:26.598Z,22.90
2018-05-12T07:09:37.852Z,22.94
2018-05-12T07:11:49.074Z,23.04
2018-05-12T07:14:00.217Z,23.13
2018-05-12T07:16:11.431Z,23.22
2018-05-12T07:18:22.597Z,23.32
2018-05-12T07:20:33.824Z,23.47
2018-05-12T07:22:44.976Z,23.44
2018-05-12T07:24:56.243Z,23.60
2018-05-12T07:27:07.348Z,23.78
2018-05-12T07:29:18.548Z,23.82
2018-05-12T07:31:30.693Z,23.84
2018-05-12T07:33:42.034Z,23.78
2018-05-12T07:35:53.288Z,23.96
2018-05-12T07:38:04.535Z,24.14
2018-05-12T07:40:15.841Z,24.32
2018-05-12T07:42:27.004Z,24.42
2018-05-12T07:44:38.350Z,24.57
2018-05-12T07:46:49.667Z,24.52
2018-05-12T07:49:00.859Z,24.51
2018-05-12T07:51:12.019Z,24.64
2018-05-12T07:53:23.202Z,24.70
2018-05-12T07:55:34.338Z,24.67
2018-05-12T07:57:45.506Z,24.39
2018-05-12T07:59:56.686Z,24.58
2018-05-12T08:02:07.917Z,24.75
2018-05-12T08:04:19.078Z,24.90
2018-05-12T08:06:30.299Z,24.82
2018-05-12T08:08:41.610Z,24.82
2018-05-12T08:10:52.710Z,24.83
2018-05-12T08:13:04.000Z,24.91
2018-05-12T08:15:15.133Z,25.17
2018-05-12T08:17:26.287Z,25.30
2018-05-12T08:19:37.538Z,25.39
2018-05-12T08:21:49.655Z,25.52
2018-05-12T08:24:00.839Z,25.68
2018-05-12T08:26:12.152Z,25.64
2018-05-12T08:28:23.319Z,25.73
2018-05-12T08:30:34.535Z,25.83
2018-05-12T08:32:45.820Z,25.86
2018-05-12T08:34:56.991Z,25.83
2018-05-12T08:37:08.139Z,25.88
2018-05-12T08:39:19.296Z,25.91
2018-05-12T08:41:30.459Z,26.00
2018-05-12T08:43:42.587Z,26.06
2018-05-12T08:45:53.868Z,26.03
2018-05-12T08:48:05.000Z,26.12
2018-05-12T08:50:16.202Z,26.25
2018-05-12T08:52:27.367Z,26.13
2018-05-12T08:54:38.495Z,25.97
2018-05-12T08:56:49.665Z,26.12
2018-05-12T08:59:00.780Z,26.20
2018-05-12T09:01:12.013Z,26.34
2018-05-12T09:03:23.181Z,26.42
2018-05-12T09:05:35.138Z,26.50
2018-05-12T09:07:49.089Z,26.55
2018-05-12T09:10:00.268Z,26.68
2018-05-12T09:12:11.386Z,26.82
2018-05-12T09:14:25.322Z,26.90
2018-05-12T09:16:36.471Z,26.87
2018-05-12T09:18:47.636Z,26.71
2018-05-12T09:20:59.877Z,26.72
2018-05-12T09:23:11.055Z,26.84
2018-05-12T09:25:22.284Z,26.91
2018-05-12T09:27:33.454Z,26.99
2018-05-12T09:29:44.661Z,27.12
2018-05-12T09:31:55.856Z,27.15
2018-05-12T09:34:06.990Z,27.20
2018-05-12T09:36:18.251Z,27.29
2018-05-12T09:38:29.375Z,27.40
2018-05-12T09:40:40.552Z,27.41
2018-05-12T09:42:51.666Z,27.51
2018-05-12T09:45:02.812Z,27.63
2018-05-12T09:47:13.965Z,27.49
2018-05-12T09:49:25.162Z,27.40
2018-05-12T09:51:36.391Z,27.35
2018-05-12T09:53:49.271Z,27.23
2018-05-12T09:56:00.525Z,27.36
2018-05-12T09:58:11.695Z,27.43
2018-05-12T10:00:24.721Z,27.57
2018-05-12T10:02:35.884Z,27.76
2018-05-12T10:04:47.061Z,27.87
2018-05-12T10:06:58.232Z,27.58
2018-05-12T10:09:09.432Z,27.37
2018-05-12T10:11:20.579Z,27.49
2018-05-12T10:13:31.811Z,27.71
2018-05-12T10:15:45.729Z,27.80
2018-05-12T10:17:56.884Z,27.78
2018-05-12T10:20:08.039Z,27.64
2018-05-12T10:22:19.174Z,27.56
2018-05-12T10:24:30.436Z,27.50
2018-05-12T10:26:41.605Z,27.44
2018-05-12T10:28:52.871Z,27.38
2018-05-12T10:31:04.098Z,27.31
2018-05-12T10:33:15.249Z,27.41
2018-05-12T10:35:41.375Z,27.62
2018-05-12T10:37:52.607Z,27.73
2018-05-12T10:40:03.755Z,27.75
2018-05-12T10:42:14.881Z,27.76
2018-05-12T10:44:26.078Z,27.96
2018-05-12T10:46:38.280Z,27.81
2018-05-12T10:48:49.386Z,27.57
2018-05-12T10:51:01.492Z,27.19
2018-05-12T10:53:12.639Z,26.88
2018-05-12T10:55:23.759Z,26.61
2018-05-12T10:57:35.027Z,26.67
2018-05-12T10:59:46.160Z,27.05
2018-05-12T11:01:57.360Z,27.18
2018-05-12T11:04:08.583Z,27.37
2018-05-12T11:06:19.773Z,27.23
2018-05-12T11:08:30.930Z,27.26
2018-05-12T11:10:42.102Z,27.48
2018-05-12T11:12:53.258Z,27.41
2018-05-12T11:15:04.503Z,27.33
2018-05-12T11:17:15.739Z,27.51
2018-05-12T11:19:27.091Z,27.64
2018-05-12T11:21:40.289Z,27.52
2018-05-12T11:23:53.392Z,27.53
2018-05-12T11:26:04.579Z,27.72
2018-05-12T11:28:15.745Z,27.95
2018-05-12T11:30:26.883Z,28.00
2018-05-12T11:32:38.870Z,28.03
2018-05-12T11:34:50.065Z,27.88
2018-05-12T11:37:01.304Z,28.00
2018-05-12T11:39:12.507Z,28.19
2018-05-12T11:41:23.660Z,28.31
2018-05-12T11:43:34.951Z,28.41
2018-05-12T11:45:46.218Z,28.52
2018-05-12T11:47:57.362Z,28.19
2018-05-12T11:50:08.818Z,28.10
2018-05-12T11:52:22.683Z,28.02
2018-05-12T11:54:33.914Z,28.14
2018-05-12T11:56:45.195Z,28.21
2018-05-12T11:58:56.434Z,28.15
2018-05-12T12:01:07.582Z,28.11
2018-05-12T12:03:18.788Z,27.98
2018-05-12T12:05:29.988Z,28.00
2018-05-12T12:07:41.125Z,27.97
2018-05-12T12:09:52.319Z,28.08
2018-05-12T12:12:03.534Z,28.22
2018-05-12T12:14:14.706Z,28.14
2018-05-12T12:16:25.934Z,27.78
2018-05-12T12:18:37.055Z,27.77
2018-05-12T12:20:48.236Z,27.88
2018-05-12T12:22:59.419Z,27.85
2018-05-12T12:25:10.644Z,27.76
2018-05-12T12:27:21.814Z,27.58
2018-05-12T12:29:33.006Z,27.58
2018-05-12T12:31:44.191Z,27.69
2018-05-12T12:33:55.333Z,27.93
2018-05-12T12:36:06.482Z,28.05
2018-05-12T12:38:17.658Z,28.16
2018-05-12T12:40:28.810Z,28.20
2018-05-12T12:42:39.958Z,28.10
2018-05-12T12:44:51.202Z,27.91
2018-05-12T12:47:02.390Z,27.90
2018-05-12T12:49:13.647Z,28.06
2018-05-12T12:51:27.666Z,28.26
2018-05-12T12:53:38.818Z,28.13
2018-05-12T12:55:49.986Z,28.03
2018-05-12T12:58:01.195Z,28.12
2018-05-12T13:00:12.337Z,28.22
2018-05-12T13:02:23.494Z,28.09
2018-05-12T13:04:34.741Z,27.97
2018-05-12T13:06:46.042Z,27.80
2018-05-12T13:08:57.247Z,27.73
2018-05-12T13:11:09.750Z,27.84
2018-05-12T13:13:20.930Z,27.80
2018-05-12T13:15:32.090Z,27.68
2018-05-12T13:17:43.310Z,27.64
2018-05-12T13:19:54.476Z,27.67
2018-05-12T13:22:05.745Z,27.70
2018-05-12T13:24:16.938Z,27.69
2018-05-12T13:26:28.126Z,27.63
2018-05-12T13:28:39.372Z,27.56
2018-05-12T13:30:50.659Z,27.51
2018-05-12T13:33:01.775Z,27.37
2018-05-12T13:35:13.039Z,27.31
2018-05-12T13:37:24.179Z,27.30
2018-05-12T13:39:35.350Z,27.40
2018-05-12T13:41:46.514Z,27.59
2018-05-12T13:43:57.687Z,27.55
2018-05-12T13:46:08.962Z,27.46
2018-05-12T13:48:20.123Z,27.45
2018-05-12T13:50:31.275Z,27.45
2018-05-12T13:52:42.470Z,27.36
2018-05-12T13:54:53.701Z,27.34
2018-05-12T13:57:04.922Z,27.33
2018-05-12T13:59:16.075Z,27.32
2018-05-12T14:01:27.344Z,27.40
2018-05-12T14:03:39.231Z,27.43
2018-05-12T14:05:51.334Z,27.50
2018-05-12T14:08:02.488Z,27.54
2018-05-12T14:10:13.642Z,27.57
2018-05-12T14:12:25.726Z,27.60
2018-05-12T14:14:36.841Z,27.61
2018-05-12T14:16:47.994Z,27.50
2018-05-12T14:18:59.192Z,27.48
2018-05-12T14:21:10.335Z,27.41
2018-05-12T14:23:21.521Z,27.33
2018-05-12T14:25:32.751Z,27.30
2018-05-12T14:27:43.957Z,27.34
2018-05-12T14:29:55.227Z,27.33
2018-05-12T14:32:06.466Z,27.32
2018-05-12T14:34:17.635Z,27.30
2018-05-12T14:36:30.036Z,27.29
2018-05-12T14:38:41.199Z,27.26
2018-05-12T14:40:52.334Z,27.23
2018-05-12T14:43:03.473Z,27.24
2018-05-12T14:45:14.761Z,27.21
2018-05-12T14:47:25.959Z,27.19
2018-05-12T14:49:37.365Z,27.09
2018-05-12T14:51:48.549Z,27.03
2018-05-12T14:54:00.257Z,26.96
2018-05-12T14:56:11.632Z,26.84
2018-05-12T14:58:22.902Z,26.79
2018-05-12T15:00:34.067Z,26.79
2018-05-12T15:02:45.304Z,26.80
2018-05-12T15:04:56.471Z,26.79
2018-05-12T15:07:07.733Z,26.87
2018-05-12T15:09:19.067Z,26.97
2018-05-12T15:11:30.202Z,27.02
2018-05-12T15:13:41.477Z,26.96
2018-05-12T15:15:52.654Z,26.93
2018-05-12T15:18:03.802Z,26.89
2018-05-12T15:20:14.920Z,26.90
2018-05-12T15:22:26.105Z,26.91
2018-05-12T15:24:40.997Z,26.89
2018-05-12T15:26:53.319Z,26.81
2018-05-12T15:29:04.607Z,26.73
2018-05-12T15:31:16.071Z,26.74
2018-05-12T15:33:27.256Z,26.72
2018-05-12T15:35:38.848Z,26.77
2018-05-12T15:37:50.374Z,26.82
2018-05-12T15:40:01.552Z,26.84
2018-05-12T15:42:12.758Z,26.80
2018-05-12T15:44:23.962Z,26.80
2018-05-12T15:46:35.135Z,26.79
2018-05-12T15:48:46.448Z,26.80
2018-05-12T15:50:57.614Z,26.75
2018-05-12T15:53:08.768Z,26.76
2018-05-12T15:55:19.890Z,26.77
2018-05-12T15:57:32.491Z,26.78
2018-05-12T15:59:43.623Z,26.71
2018-05-12T16:01:54.748Z,26.68
2018-05-12T16:04:06.009Z,26.64
2018-05-12T16:06:17.316Z,26.64
2018-05-12T16:08:28.695Z,26.64
2018-05-12T16:10:39.885Z,26.62
2018-05-12T16:12:51.059Z,26.60
2018-05-12T16:15:02.247Z,26.62
2018-05-12T16:17:13.365Z,26.64
2018-05-12T16:19:24.535Z,26.69
2018-05-12T16:21:35.679Z,26.65
2018-05-12T16:23:46.877Z,26.66
2018-05-12T16:25:58.010Z,26.62
2018-05-12T16:28:09.394Z,26.59
2018-05-12T16:30:20.566Z,26.57
2018-05-12T16:32:31.796Z,26.58
2018-05-12T16:34:42.935Z,26.58
2018-05-12T16:36:54.085Z,26.60
2018-05-12T16:39:05.223Z,26.55
2018-05-12T16:41:16.378Z,26.50
2018-05-12T16:43:27.515Z,26.48
2018-05-12T16:45:38.687Z,26.46
2018-05-12T16:47:49.826Z,26.45
2018-05-12T16:50:00.957Z,26.44
2018-05-12T16:52:12.118Z,26.51
2018-05-12T16:54:23.448Z,26.50
2018-05-12T16:56:34.557Z,26.50
2018-05-12T16:58:45.750Z,26.54
2018-05-12T17:00:56.870Z,26.50
2018-05-12T17:03:08.062Z,26.42
2018-05-12T17:05:19.214Z,26.41
2018-05-12T17:07:30.469Z,26.38
2018-05-12T17:09:41.578Z,26.37
2018-05-12T17:11:52.754Z,26.39
2018-05-12T17:14:03.924Z,26.36
2018-05-12T17:16:15.054Z,26.32
2018-05-12T17:18:26.218Z,26.28
2018-05-12T17:20:37.496Z,26.27
2018-05-12T17:22:48.648Z,26.26
2018-05-12T17:24:59.883Z,26.19
2018-05-12T17:27:11.007Z,26.14
2018-05-12T17:29:22.365Z,26.10
2018-05-12T17:31:33.544Z,26.04
2018-05-12T17:33:44.741Z,25.97
2018-05-12T17:35:56.027Z,25.94
2018-05-12T17:38:07.195Z,25.89
2018-05-12T17:40:18.402Z,25.85
2018-05-12T17:42:29.555Z,25.81
2018-05-12T17:44:40.783Z,25.76
2018-05-12T17:46:51.962Z,25.69
2018-05-12T17:49:03.207Z,25.66
2018-05-12T17:51:14.349Z,25.61
2018-05-12T17:53:25.564Z,25.52
2018-05-12T17:55:36.840Z,25.39
2018-05-12T17:57:47.963Z,25.22
2018-05-12T17:59:59.147Z,25.07
2018-05-12T18:02:10.347Z,24.90
2018-05-12T18:04:21.488Z,24.72
2018-05-12T18:06:32.685Z,24.58
2018-05-12T18:08:43.873Z,24.45
2018-05-12T18:10:55.027Z,24.32
2018-05-12T18:13:06.141Z,24.27
2018-05-12T18:15:17.294Z,24.15
2018-05-12T18:17:28.580Z,24.09
2018-05-12T18:19:40.651Z,23.96
2018-05-12T18:21:51.857Z,23.84
2018-05-12T18:24:02.983Z,23.72
2018-05-12T18:26:14.134Z,23.67
2018-05-12T18:28:25.324Z,23.61
2018-05-12T18:30:36.506Z,23.51
2018-05-12T18:32:47.682Z,23.40
2018-05-12T18:34:58.850Z,23.28
2018-05-12T18:37:10.032Z,23.19
2018-05-12T18:39:21.229Z,23.09
2018-05-12T18:41:32.409Z,22.97
2018-05-12T18:43:43.595Z,22.90
2018-05-12T18:45:54.750Z,22.78
2018-05-12T18:48:05.962Z,22.64
2018-05-12T18:50:17.065Z,22.54
2018-05-12T18:52:28.311Z,22.43
2018-05-12T18:54:39.501Z,22.31
2018-05-12T18:56:50.705Z,22.20
2018-05-12T18:59:01.937Z,22.13
2018-05-12T19:01:13.075Z,22.08
2018-05-12T19:03:24.368Z,22.03
2018-05-12T19:05:35.562Z,22.01
2018-05-12T19:07:46.683Z,21.89
2018-05-12T19:09:57.902Z,21.84
2018-05-12T19:12:09.080Z,21.77
2018-05-12T19:14:20.263Z,21.78
2018-05-12T19:16:31.440Z,21.77
2018-05-12T19:18:42.606Z,21.72
2018-05-12T19:20:53.857Z,21.67
2018-05-12T19:23:04.990Z,21.56
2018-05-12T19:25:16.370Z,21.50
2018-05-12T19:27:27.507Z,21.41
2018-05-12T19:29:38.656Z,21.33
2018-05-12T19:31:49.906Z,21.24
2018-05-12T19:34:01.118Z,21.16
2018-05-12T19:36:12.351Z,21.10
2018-05-12T19:38:23.545Z,21.04
2018-05-12T19:40:34.692Z,21.01
2018-05-12T19:42:45.826Z,20.99
2018-05-12T19:44:56.995Z,20.94
2018-05-12T19:47:08.174Z,20.88
2018-05-12T19:49:19.312Z,20.90
2018-05-12T19:51:30.604Z,21.27
2018-05-12T19:53:41.749Z,21.61
2018-05-12T19:55:52.881Z,21.86
2018-05-12T19:58:04.125Z,22.00
2018-05-12T20:00:15.263Z,22.10
2018-05-12T20:02:26.482Z,22.17
2018-05-12T20:04:37.633Z,22.21
2018-05-12T20:06:48.785Z,22.21
2018-05-12T20:08:59.914Z,22.24
2018-05-12T20:11:11.077Z,22.32
2018-05-12T20:13:22.262Z,22.15
2018-05-12T20:15:33.395Z,21.87
2018-05-12T20:17:44.653Z,21.57
2018-05-12T20:19:55.856Z,21.31
2018-05-12T20:22:07.027Z,21.12
2018-05-12T20:24:18.291Z,20.92
2018-05-12T20:26:29.419Z,20.76
2018-05-12T20:28:40.900Z,20.67
2018-05-12T20:30:52.084Z,20.57
2018-05-12T20:33:03.279Z,20.51
2018-05-12T20:35:14.585Z,20.42
2018-05-12T20:37:25.857Z,20.38
2018-05-12T20:39:36.978Z,20.29
2018-05-12T20:41:48.119Z,20.27
2018-05-12T20:43:59.290Z,20.19
2018-05-12T20:46:10.474Z,20.11
2018-05-12T20:48:21.631Z,20.04
2018-05-12T20:50:32.825Z,19.96
2018-05-12T20:52:44.018Z,19.94
2018-05-12T20:54:55.182Z,19.93
2018-05-12T20:57:06.836Z,19.92
2018-05-12T20:59:17.978Z,19.84
2018-05-12T21:01:29.172Z,19.78
2018-05-12T21:03:40.410Z,19.73
2018-05-12T21:05:51.575Z,19.68
2018-05-12T21:08:02.799Z,19.65
2018-05-12T21:10:13.976Z,19.64
2018-05-12T21:12:25.171Z,19.67
2018-05-12T21:14:36.409Z,20.15
2018-05-12T21:16:47.610Z,20.72
2018-05-12T21:18:58.746Z,21.12
2018-05-12T21:21:09.912Z,21.29
2018-05-12T21:23:21.082Z,21.45
2018-05-12T21:25:32.238Z,21.58
2018-05-12T21:27:43.383Z,21.61
2018-05-12T21:29:54.659Z,21.52
2018-05-12T21:32:05.920Z,21.43
2018-05-12T21:34:17.071Z,21.40
2018-05-12T21:36:28.374Z,21.38
2018-05-12T21:38:39.512Z,21.34
2018-05-12T21:40:50.684Z,21.27
2018-05-12T21:43:01.839Z,21.19
2018-05-12T21:45:12.971Z,21.17
2018-05-12T21:47:24.202Z,21.16
2018-05-12T21:49:35.379Z,21.14
2018-05-12T21:51:46.733Z,21.14
2018-05-12T21:53:57.876Z,21.15
2018-05-12T21:56:09.000Z,21.19
2018-05-12T21:58:20.293Z,21.25
2018-05-12T22:00:31.486Z,21.30
2018-05-12T22:02:42.760Z,21.32
2018-05-12T22:04:54.018Z,21.32
2018-05-12T22:07:05.264Z,21.34
2018-05-12T22:09:16.626Z,21.34
2018-05-12T22:11:27.815Z,21.31
2018-05-12T22:13:39.024Z,21.33
2018-05-12T22:15:50.170Z,21.33
2018-05-12T22:18:01.358Z,21.29
2018-05-12T22:20:12.484Z,21.24
2018-05-12T22:22:23.590Z,21.17
2018-05-12T22:24:34.751Z,21.06
2018-05-12T22:26:45.902Z,20.93
2018-05-12T22:28:57.159Z,20.86
2018-05-12T22:31:08.439Z,20.82
2018-05-12T22:33:19.598Z,20.74
2018-05-12T22:35:30.766Z,20.69
2018-05-12T22:37:41.912Z,20.64
2018-05-12T22:39:53.195Z,20.58
2018-05-12T22:42:04.340Z,20.45
2018-05-12T22:44:15.471Z,20.38
2018-05-12T22:46:26.675Z,20.24
2018-05-12T22:48:37.835Z,20.25
2018-05-12T22:50:48.991Z,20.19
2018-05-12T22:53:00.121Z,20.17
2018-05-12T22:55:11.281Z,20.16
2018-05-12T22:57:22.535Z,20.14
2018-05-12T22:59:33.673Z,20.12
2018-05-12T23:01:44.869Z,20.10
2018-05-12T23:03:56.116Z,20.02
2018-05-12T23:06:07.282Z,20.02
2018-05-12T23:08:18.439Z,20.02
2018-05-12T23:10:29.631Z,20.00
2018-05-12T23:12:40.857Z,20.01
2018-05-12T23:14:51.986Z,19.99
2018-05-12T23:17:03.135Z,19.93
2018-05-12T23:19:14.286Z,19.89
2018-05-12T23:21:25.476Z,19.81
2018-05-12T23:23:36.654Z,19.63
2018-05-12T23:25:47.802Z,19.41
2018-05-12T23:27:59.100Z,19.34
2018-05-12T23:30:10.395Z,19.18
2018-05-12T23:32:21.549Z,19.11
2018-05-12T23:34:32.690Z,19.04
2018-05-12T23:36:43.805Z,18.91
2018-05-12T23:38:54.927Z,18.82
2018-05-12T23:41:06.070Z,18.77
2018-05-12T23:43:17.193Z,18.59
2018-05-12T23:45:28.310Z,18.37
2018-05-12T23:47:39.500Z,18.23
2018-05-12T23:49:50.851Z,18.22
2018-05-12T23:52:01.964Z,18.23
2018-05-12T23:54:13.147Z,18.09
2018-05-12T23:56:24.263Z,17.85
2018-05-12T23:58:35.456Z,17.78
